sensor_id;sensor_type;location;lat;lon;timestamp;P1;durP1;ratioP1;P2;durP2;ratioP2
75303;SDS011;64042;50.916;6.988;2022-12-18T00:01:40;6.57;;;6.07;;
75303;SDS011;64042;50.916;6.988;2022-12-18T00:04:06;8.40;;;7.77;;
75303;SDS011;64042;50.916;6.988;2022-12-18T00:06:33;6.20;;;5.60;;
75303;SDS011;64042;50.916;6.988;2022-12-18T00:08:59;7.05;;;6.35;;
75303;SDS011;64042;50.916;6.988;2022-12-18T00:11:26;6.30;;;5.70;;
75303;SDS011;64042;50.916;6.988;2022-12-18T00:13:53;7.07;;;6.47;;
75303;SDS011;64042;50.916;6.988;2022-12-18T00:16:20;6.85;;;6.25;;
75303;SDS011;64042;50.916;6.988;2022-12-18T00:18:47;11.07;;;10.30;;
75303;SDS011;64042;50.916;6.988;2022-12-18T00:21:14;6.00;;;4.60;;
75303;SDS011;64042;50.916;6.988;2022-12-18T00:23:40;5.65;;;4.75;;
75303;SDS011;64042;50.916;6.988;2022-12-18T00:26:07;5.35;;;4.70;;
75303;SDS011;64042;50.916;6.988;2022-12-18T00:28:40;5.90;;;5.38;;
75303;SDS011;64042;50.916;6.988;2022-12-18T00:31:06;7.82;;;7.22;;
75303;SDS011;64042;50.916;6.988;2022-12-18T00:33:34;5.28;;;4.70;;
75303;SDS011;64042;50.916;6.988;2022-12-18T00:36:00;5.43;;;4.93;;
75303;SDS011;64042;50.916;6.988;2022-12-18T00:38:45;5.68;;;4.90;;
75303;SDS011;64042;50.916;6.988;2022-12-18T00:41:11;6.22;;;4.97;;
75303;SDS011;64042;50.916;6.988;2022-12-18T00:43:38;5.45;;;4.90;;
75303;SDS011;64042;50.916;6.988;2022-12-18T00:46:04;5.25;;;4.75;;
75303;SDS011;64042;50.916;6.988;2022-12-18T00:48:30;5.50;;;4.90;;
75303;SDS011;64042;50.916;6.988;2022-12-18T00:50:56;5.00;;;4.43;;
75303;SDS011;64042;50.916;6.988;2022-12-18T00:53:21;5.53;;;4.47;;
75303;SDS011;64042;50.916;6.988;2022-12-18T00:55:47;4.70;;;4.18;;
75303;SDS011;64042;50.916;6.988;2022-12-18T00:58:13;7.57;;;6.88;;
75303;SDS011;64042;50.916;6.988;2022-12-18T01:00:39;6.10;;;5.50;;
75303;SDS011;64042;50.916;6.988;2022-12-18T01:03:04;5.25;;;4.22;;
75303;SDS011;64042;50.916;6.988;2022-12-18T01:05:30;6.85;;;6.25;;
75303;SDS011;64042;50.916;6.988;2022-12-18T01:07:55;8.15;;;7.45;;
75303;SDS011;64042;50.916;6.988;2022-12-18T01:10:21;7.35;;;6.75;;
75303;SDS011;64042;50.916;6.988;2022-12-18T01:12:46;6.22;;;5.63;;
75303;SDS011;64042;50.916;6.988;2022-12-18T01:15:12;6.63;;;6.03;;
75303;SDS011;64042;50.916;6.988;2022-12-18T01:17:38;7.00;;;6.40;;
75303;SDS011;64042;50.916;6.988;2022-12-18T01:20:04;6.63;;;6.03;;
75303;SDS011;64042;50.916;6.988;2022-12-18T01:22:29;5.93;;;5.43;;
75303;SDS011;64042;50.916;6.988;2022-12-18T01:24:55;7.17;;;6.57;;
75303;SDS011;64042;50.916;6.988;2022-12-18T01:27:20;7.25;;;6.57;;
75303;SDS011;64042;50.916;6.988;2022-12-18T01:29:45;6.88;;;6.28;;
75303;SDS011;64042;50.916;6.988;2022-12-18T01:32:12;7.13;;;6.53;;
75303;SDS011;64042;50.916;6.988;2022-12-18T01:34:37;6.63;;;6.03;;
75303;SDS011;64042;50.916;6.988;2022-12-18T01:37:03;6.88;;;6.38;;
75303;SDS011;64042;50.916;6.988;2022-12-18T01:39:29;7.38;;;6.80;;
75303;SDS011;64042;50.916;6.988;2022-12-18T01:41:54;9.95;;;9.25;;
75303;SDS011;64042;50.916;6.988;2022-12-18T01:52:43;5.88;;;5.30;;
75303;SDS011;64042;50.916;6.988;2022-12-18T01:55:11;6.43;;;5.82;;
75303;SDS011;64042;50.916;6.988;2022-12-18T01:57:38;6.53;;;5.93;;
75303;SDS011;64042;50.916;6.988;2022-12-18T02:00:06;6.65;;;6.05;;
75303;SDS011;64042;50.916;6.988;2022-12-18T02:02:36;5.93;;;5.43;;
75303;SDS011;64042;50.916;6.988;2022-12-18T02:05:02;5.33;;;4.63;;
75303;SDS011;64042;50.916;6.988;2022-12-18T02:07:33;4.80;;;4.22;;
75303;SDS011;64042;50.916;6.988;2022-12-18T02:17:47;4.93;;;4.43;;
75303;SDS011;64042;50.916;6.988;2022-12-18T02:20:21;4.40;;;3.95;;
75303;SDS011;64042;50.916;6.988;2022-12-18T02:28:22;6.28;;;5.68;;
75303;SDS011;64042;50.916;6.988;2022-12-18T02:30:49;6.82;;;6.32;;
75303;SDS011;64042;50.916;6.988;2022-12-18T02:33:15;6.97;;;6.40;;
75303;SDS011;64042;50.916;6.988;2022-12-18T02:35:42;6.20;;;5.70;;
75303;SDS011;64042;50.916;6.988;2022-12-18T02:38:08;7.22;;;6.63;;
75303;SDS011;64042;50.916;6.988;2022-12-18T02:40:34;6.72;;;6.13;;
75303;SDS011;64042;50.916;6.988;2022-12-18T02:43:06;6.03;;;5.43;;
75303;SDS011;64042;50.916;6.988;2022-12-18T02:45:33;6.53;;;6.03;;
75303;SDS011;64042;50.916;6.988;2022-12-18T02:47:58;6.90;;;6.35;;
75303;SDS011;64042;50.916;6.988;2022-12-18T02:50:30;5.87;;;5.37;;
75303;SDS011;64042;50.916;6.988;2022-12-18T02:53:23;7.13;;;6.53;;
75303;SDS011;64042;50.916;6.988;2022-12-18T02:56:01;6.30;;;5.80;;
75303;SDS011;64042;50.916;6.988;2022-12-18T03:03:50;4.57;;;4.18;;
75303;SDS011;64042;50.916;6.988;2022-12-18T03:06:24;5.15;;;4.75;;
75303;SDS011;64042;50.916;6.988;2022-12-18T03:08:54;5.32;;;4.15;;
75303;SDS011;64042;50.916;6.988;2022-12-18T03:11:23;6.07;;;5.57;;
75303;SDS011;64042;50.916;6.988;2022-12-18T03:14:10;6.18;;;5.65;;
75303;SDS011;64042;50.916;6.988;2022-12-18T03:16:37;6.47;;;5.97;;
75303;SDS011;64042;50.916;6.988;2022-12-18T03:19:24;5.97;;;4.30;;
75303;SDS011;64042;50.916;6.988;2022-12-18T03:21:53;5.82;;;5.32;;
75303;SDS011;64042;50.916;6.988;2022-12-18T03:24:20;5.88;;;5.32;;
75303;SDS011;64042;50.916;6.988;2022-12-18T03:26:47;5.97;;;5.47;;
75303;SDS011;64042;50.916;6.988;2022-12-18T03:29:23;4.38;;;3.83;;
75303;SDS011;64042;50.916;6.988;2022-12-18T03:31:53;5.85;;;5.35;;
75303;SDS011;64042;50.916;6.988;2022-12-18T03:34:20;4.15;;;3.55;;
75303;SDS011;64042;50.916;6.988;2022-12-18T03:36:48;5.18;;;4.68;;
75303;SDS011;64042;50.916;6.988;2022-12-18T03:39:14;6.13;;;5.63;;
75303;SDS011;64042;50.916;6.988;2022-12-18T03:41:51;5.68;;;5.18;;
75303;SDS011;64042;50.916;6.988;2022-12-18T03:49:34;6.40;;;5.88;;
75303;SDS011;64042;50.916;6.988;2022-12-18T03:54:50;5.40;;;4.90;;
75303;SDS011;64042;50.916;6.988;2022-12-18T03:57:17;6.90;;;6.30;;
75303;SDS011;64042;50.916;6.988;2022-12-18T03:59:45;4.40;;;3.83;;
75303;SDS011;64042;50.916;6.988;2022-12-18T04:02:11;6.63;;;6.13;;
75303;SDS011;64042;50.916;6.988;2022-12-18T04:04:36;6.18;;;5.68;;
75303;SDS011;64042;50.916;6.988;2022-12-18T04:07:02;4.70;;;4.15;;
75303;SDS011;64042;50.916;6.988;2022-12-18T04:09:28;5.75;;;5.25;;
75303;SDS011;64042;50.916;6.988;2022-12-18T04:11:55;7.47;;;6.97;;
75303;SDS011;64042;50.916;6.988;2022-12-18T04:14:20;5.03;;;4.57;;
75303;SDS011;64042;50.916;6.988;2022-12-18T04:16:45;6.57;;;5.97;;
75303;SDS011;64042;50.916;6.988;2022-12-18T04:19:11;6.17;;;5.67;;
75303;SDS011;64042;50.916;6.988;2022-12-18T04:21:36;6.18;;;5.68;;
75303;SDS011;64042;50.916;6.988;2022-12-18T04:24:01;5.55;;;5.15;;
75303;SDS011;64042;50.916;6.988;2022-12-18T04:26:27;5.78;;;4.13;;
75303;SDS011;64042;50.916;6.988;2022-12-18T04:28:52;6.60;;;6.03;;
75303;SDS011;64042;50.916;6.988;2022-12-18T04:31:17;5.90;;;5.40;;
75303;SDS011;64042;50.916;6.988;2022-12-18T04:33:43;5.67;;;5.20;;
75303;SDS011;64042;50.916;6.988;2022-12-18T04:36:08;5.97;;;5.47;;
75303;SDS011;64042;50.916;6.988;2022-12-18T04:38:34;5.78;;;5.28;;
75303;SDS011;64042;50.916;6.988;2022-12-18T04:40:59;5.82;;;5.43;;
75303;SDS011;64042;50.916;6.988;2022-12-18T04:43:24;5.50;;;5.00;;
75303;SDS011;64042;50.916;6.988;2022-12-18T04:45:50;5.97;;;5.47;;
75303;SDS011;64042;50.916;6.988;2022-12-18T04:48:15;6.73;;;6.23;;
75303;SDS011;64042;50.916;6.988;2022-12-18T04:50:40;6.60;;;6.10;;
75303;SDS011;64042;50.916;6.988;2022-12-18T04:53:06;5.28;;;4.18;;
75303;SDS011;64042;50.916;6.988;2022-12-18T04:55:31;5.50;;;4.82;;
75303;SDS011;64042;50.916;6.988;2022-12-18T04:57:56;5.40;;;4.97;;
75303;SDS011;64042;50.916;6.988;2022-12-18T05:00:22;6.65;;;6.05;;
75303;SDS011;64042;50.916;6.988;2022-12-18T05:02:47;6.70;;;6.10;;
75303;SDS011;64042;50.916;6.988;2022-12-18T05:05:13;6.32;;;5.82;;
75303;SDS011;64042;50.916;6.988;2022-12-18T05:07:38;5.35;;;4.90;;
75303;SDS011;64042;50.916;6.988;2022-12-18T05:10:03;6.90;;;6.40;;
75303;SDS011;64042;50.916;6.988;2022-12-18T05:12:30;5.68;;;5.18;;
75303;SDS011;64042;50.916;6.988;2022-12-18T05:14:56;4.97;;;4.57;;
75303;SDS011;64042;50.916;6.988;2022-12-18T05:17:21;5.57;;;5.17;;
75303;SDS011;64042;50.916;6.988;2022-12-18T05:19:46;4.13;;;3.73;;
75303;SDS011;64042;50.916;6.988;2022-12-18T05:22:11;4.33;;;4.00;;
75303;SDS011;64042;50.916;6.988;2022-12-18T05:24:37;5.97;;;5.53;;
75303;SDS011;64042;50.916;6.988;2022-12-18T05:27:02;4.13;;;3.67;;
75303;SDS011;64042;50.916;6.988;2022-12-18T05:29:27;4.65;;;3.90;;
75303;SDS011;64042;50.916;6.988;2022-12-18T05:31:53;6.03;;;5.43;;
75303;SDS011;64042;50.916;6.988;2022-12-18T05:34:18;4.47;;;4.07;;
75303;SDS011;64042;50.916;6.988;2022-12-18T05:36:43;6.72;;;5.80;;
75303;SDS011;64042;50.916;6.988;2022-12-18T05:39:09;5.43;;;4.93;;
75303;SDS011;64042;50.916;6.988;2022-12-18T05:41:34;5.93;;;5.40;;
75303;SDS011;64042;50.916;6.988;2022-12-18T05:43:59;5.72;;;5.13;;
75303;SDS011;64042;50.916;6.988;2022-12-18T05:46:25;5.63;;;5.15;;
75303;SDS011;64042;50.916;6.988;2022-12-18T05:48:50;6.43;;;5.88;;
75303;SDS011;64042;50.916;6.988;2022-12-18T05:51:17;3.78;;;3.47;;
75303;SDS011;64042;50.916;6.988;2022-12-18T05:53:45;5.20;;;4.70;;
75303;SDS011;64042;50.916;6.988;2022-12-18T05:56:12;4.43;;;3.88;;
75303;SDS011;64042;50.916;6.988;2022-12-18T05:58:39;4.88;;;4.40;;
75303;SDS011;64042;50.916;6.988;2022-12-18T06:01:06;5.07;;;4.55;;
75303;SDS011;64042;50.916;6.988;2022-12-18T06:03:36;5.55;;;5.05;;
75303;SDS011;64042;50.916;6.988;2022-12-18T06:08:30;8.25;;;7.65;;
75303;SDS011;64042;50.916;6.988;2022-12-18T06:10:56;4.43;;;4.03;;
75303;SDS011;64042;50.916;6.988;2022-12-18T06:13:21;6.18;;;5.57;;
75303;SDS011;64042;50.916;6.988;2022-12-18T06:15:46;4.43;;;4.03;;
75303;SDS011;64042;50.916;6.988;2022-12-18T06:18:12;6.93;;;6.43;;
75303;SDS011;64042;50.916;6.988;2022-12-18T06:20:37;5.50;;;5.00;;
75303;SDS011;64042;50.916;6.988;2022-12-18T06:23:04;5.47;;;4.97;;
75303;SDS011;64042;50.916;6.988;2022-12-18T06:25:30;5.93;;;5.45;;
75303;SDS011;64042;50.916;6.988;2022-12-18T06:27:55;5.73;;;5.23;;
75303;SDS011;64042;50.916;6.988;2022-12-18T06:30:20;6.33;;;5.83;;
75303;SDS011;64042;50.916;6.988;2022-12-18T06:32:47;5.47;;;4.97;;
75303;SDS011;64042;50.916;6.988;2022-12-18T06:35:13;6.25;;;5.65;;
75303;SDS011;64042;50.916;6.988;2022-12-18T06:37:38;4.03;;;3.63;;
75303;SDS011;64042;50.916;6.988;2022-12-18T06:40:04;4.30;;;3.77;;
75303;SDS011;64042;50.916;6.988;2022-12-18T06:42:30;4.13;;;3.72;;
75303;SDS011;64042;50.916;6.988;2022-12-18T06:44:55;4.83;;;3.43;;
75303;SDS011;64042;50.916;6.988;2022-12-18T06:47:20;4.10;;;3.50;;
75303;SDS011;64042;50.916;6.988;2022-12-18T06:49:46;4.55;;;4.15;;
75303;SDS011;64042;50.916;6.988;2022-12-18T06:52:11;7.57;;;7.00;;
75303;SDS011;64042;50.916;6.988;2022-12-18T06:54:36;6.23;;;5.67;;
75303;SDS011;64042;50.916;6.988;2022-12-18T06:57:02;6.13;;;5.57;;
75303;SDS011;64042;50.916;6.988;2022-12-18T06:59:27;6.40;;;5.90;;
75303;SDS011;64042;50.916;6.988;2022-12-18T07:01:52;8.38;;;7.78;;
75303;SDS011;64042;50.916;6.988;2022-12-18T07:04:18;5.37;;;4.97;;
75303;SDS011;64042;50.916;6.988;2022-12-18T07:06:43;4.13;;;3.72;;
75303;SDS011;64042;50.916;6.988;2022-12-18T07:09:08;5.43;;;4.93;;
75303;SDS011;64042;50.916;6.988;2022-12-18T07:11:34;5.75;;;5.25;;
75303;SDS011;64042;50.916;6.988;2022-12-18T07:13:59;5.45;;;4.95;;
75303;SDS011;64042;50.916;6.988;2022-12-18T07:16:24;5.60;;;5.13;;
75303;SDS011;64042;50.916;6.988;2022-12-18T07:18:50;6.07;;;5.57;;
75303;SDS011;64042;50.916;6.988;2022-12-18T07:21:16;5.68;;;5.28;;
75303;SDS011;64042;50.916;6.988;2022-12-18T07:23:43;5.40;;;5.00;;
75303;SDS011;64042;50.916;6.988;2022-12-18T07:26:11;6.00;;;5.50;;
75303;SDS011;64042;50.916;6.988;2022-12-18T07:28:37;5.82;;;5.32;;
75303;SDS011;64042;50.916;6.988;2022-12-18T07:31:04;5.95;;;5.47;;
75303;SDS011;64042;50.916;6.988;2022-12-18T07:33:32;8.02;;;7.43;;
75303;SDS011;64042;50.916;6.988;2022-12-18T07:35:58;6.22;;;5.65;;
75303;SDS011;64042;50.916;6.988;2022-12-18T07:38:24;5.15;;;4.75;;
75303;SDS011;64042;50.916;6.988;2022-12-18T07:40:49;4.83;;;4.23;;
75303;SDS011;64042;50.916;6.988;2022-12-18T07:43:15;5.77;;;5.27;;
75303;SDS011;64042;50.916;6.988;2022-12-18T07:45:41;6.20;;;5.70;;
75303;SDS011;64042;50.916;6.988;2022-12-18T07:48:07;6.18;;;5.65;;
75303;SDS011;64042;50.916;6.988;2022-12-18T07:50:32;6.67;;;6.07;;
75303;SDS011;64042;50.916;6.988;2022-12-18T07:52:57;4.83;;;4.43;;
75303;SDS011;64042;50.916;6.988;2022-12-18T07:55:22;7.05;;;6.35;;
75303;SDS011;64042;50.916;6.988;2022-12-18T07:57:48;9.73;;;8.67;;
75303;SDS011;64042;50.916;6.988;2022-12-18T08:00:13;9.23;;;8.32;;
75303;SDS011;64042;50.916;6.988;2022-12-18T08:02:39;8.38;;;6.40;;
75303;SDS011;64042;50.916;6.988;2022-12-18T08:05:04;8.57;;;7.77;;
75303;SDS011;64042;50.916;6.988;2022-12-18T08:07:30;9.27;;;8.38;;
75303;SDS011;64042;50.916;6.988;2022-12-18T08:09:55;11.90;;;10.63;;
75303;SDS011;64042;50.916;6.988;2022-12-18T08:12:20;10.90;;;9.67;;
75303;SDS011;64042;50.916;6.988;2022-12-18T08:14:45;10.27;;;9.13;;
75303;SDS011;64042;50.916;6.988;2022-12-18T08:17:11;11.13;;;10.05;;
75303;SDS011;64042;50.916;6.988;2022-12-18T08:19:36;7.55;;;6.13;;
75303;SDS011;64042;50.916;6.988;2022-12-18T08:22:01;9.73;;;6.68;;
75303;SDS011;64042;50.916;6.988;2022-12-18T08:24:27;11.00;;;9.90;;
75303;SDS011;64042;50.916;6.988;2022-12-18T08:26:52;10.50;;;9.50;;
75303;SDS011;64042;50.916;6.988;2022-12-18T08:29:17;10.70;;;9.68;;
75303;SDS011;64042;50.916;6.988;2022-12-18T08:31:43;9.97;;;8.40;;
75303;SDS011;64042;50.916;6.988;2022-12-18T08:34:08;9.13;;;8.18;;
75303;SDS011;64042;50.916;6.988;2022-12-18T08:36:33;9.43;;;8.55;;
75303;SDS011;64042;50.916;6.988;2022-12-18T08:38:59;8.60;;;7.80;;
75303;SDS011;64042;50.916;6.988;2022-12-18T08:41:24;9.20;;;8.27;;
75303;SDS011;64042;50.916;6.988;2022-12-18T08:43:50;8.45;;;7.63;;
75303;SDS011;64042;50.916;6.988;2022-12-18T08:46:35;8.63;;;7.45;;
75303;SDS011;64042;50.916;6.988;2022-12-18T08:49:04;9.80;;;8.90;;
75303;SDS011;64042;50.916;6.988;2022-12-18T08:51:30;8.55;;;7.63;;
75303;SDS011;64042;50.916;6.988;2022-12-18T08:53:55;9.20;;;7.10;;
75303;SDS011;64042;50.916;6.988;2022-12-18T08:56:20;7.83;;;7.13;;
75303;SDS011;64042;50.916;6.988;2022-12-18T08:58:46;9.40;;;8.50;;
75303;SDS011;64042;50.916;6.988;2022-12-18T09:01:11;8.32;;;7.63;;
75303;SDS011;64042;50.916;6.988;2022-12-18T09:03:38;9.02;;;8.18;;
75303;SDS011;64042;50.916;6.988;2022-12-18T09:06:04;7.63;;;6.85;;
75303;SDS011;64042;50.916;6.988;2022-12-18T09:08:29;7.10;;;6.28;;
75303;SDS011;64042;50.916;6.988;2022-12-18T09:10:55;9.38;;;8.68;;
75303;SDS011;64042;50.916;6.988;2022-12-18T09:13:20;8.07;;;7.25;;
75303;SDS011;64042;50.916;6.988;2022-12-18T09:15:49;8.75;;;5.63;;
75303;SDS011;64042;50.916;6.988;2022-12-18T09:18:17;10.07;;;5.72;;
75303;SDS011;64042;50.916;6.988;2022-12-18T09:20:44;8.50;;;5.15;;
75303;SDS011;64042;50.916;6.988;2022-12-18T09:23:10;9.77;;;7.28;;
75303;SDS011;64042;50.916;6.988;2022-12-18T09:25:36;10.68;;;7.72;;
75303;SDS011;64042;50.916;6.988;2022-12-18T09:28:03;10.50;;;5.25;;
75303;SDS011;64042;50.916;6.988;2022-12-18T09:30:30;21.27;;;7.95;;
75303;SDS011;64042;50.916;6.988;2022-12-18T09:32:58;13.93;;;6.75;;
75303;SDS011;64042;50.916;6.988;2022-12-18T09:35:23;9.25;;;6.18;;
75303;SDS011;64042;50.916;6.988;2022-12-18T09:37:48;12.73;;;8.10;;
75303;SDS011;64042;50.916;6.988;2022-12-18T09:40:18;10.97;;;5.23;;
75303;SDS011;64042;50.916;6.988;2022-12-18T09:42:46;11.90;;;8.20;;
75303;SDS011;64042;50.916;6.988;2022-12-18T09:45:14;9.73;;;5.57;;
75303;SDS011;64042;50.916;6.988;2022-12-18T09:47:40;11.50;;;7.40;;
75303;SDS011;64042;50.916;6.988;2022-12-18T09:50:16;14.20;;;5.47;;
75303;SDS011;64042;50.916;6.988;2022-12-18T09:52:49;10.75;;;7.43;;
75303;SDS011;64042;50.916;6.988;2022-12-18T09:57:47;8.70;;;6.82;;
75303;SDS011;64042;50.916;6.988;2022-12-18T10:00:19;7.63;;;6.93;;
75303;SDS011;64042;50.916;6.988;2022-12-18T10:02:46;10.18;;;8.25;;
75303;SDS011;64042;50.916;6.988;2022-12-18T10:05:13;7.57;;;6.50;;
75303;SDS011;64042;50.916;6.988;2022-12-18T10:08:02;10.80;;;6.93;;
75303;SDS011;64042;50.916;6.988;2022-12-18T10:10:47;9.55;;;8.38;;
75303;SDS011;64042;50.916;6.988;2022-12-18T10:13:15;7.38;;;6.63;;
75303;SDS011;64042;50.916;6.988;2022-12-18T10:21:19;8.48;;;5.38;;
75303;SDS011;64042;50.916;6.988;2022-12-18T10:23:50;7.35;;;4.85;;
75303;SDS011;64042;50.916;6.988;2022-12-18T10:26:22;8.10;;;7.25;;
75303;SDS011;64042;50.916;6.988;2022-12-18T10:28:48;8.88;;;8.00;;
75303;SDS011;64042;50.916;6.988;2022-12-18T10:31:22;8.83;;;7.43;;
75303;SDS011;64042;50.916;6.988;2022-12-18T10:33:49;12.07;;;6.43;;
75303;SDS011;64042;50.916;6.988;2022-12-18T10:36:14;8.20;;;7.03;;
75303;SDS011;64042;50.916;6.988;2022-12-18T10:38:39;9.00;;;7.28;;
75303;SDS011;64042;50.916;6.988;2022-12-18T10:41:25;6.88;;;5.32;;
75303;SDS011;64042;50.916;6.988;2022-12-18T10:44:15;10.75;;;7.15;;
75303;SDS011;64042;50.916;6.988;2022-12-18T10:46:48;7.70;;;7.00;;
75303;SDS011;64042;50.916;6.988;2022-12-18T10:49:28;7.88;;;6.57;;
75303;SDS011;64042;50.916;6.988;2022-12-18T10:52:05;8.57;;;6.43;;
75303;SDS011;64042;50.916;6.988;2022-12-18T10:54:45;9.57;;;7.05;;
75303;SDS011;64042;50.916;6.988;2022-12-18T10:57:31;7.15;;;5.35;;
75303;SDS011;64042;50.916;6.988;2022-12-18T11:00:21;7.40;;;5.10;;
75303;SDS011;64042;50.916;6.988;2022-12-18T11:02:53;7.88;;;4.82;;
75303;SDS011;64042;50.916;6.988;2022-12-18T11:05:32;9.38;;;7.00;;
75303;SDS011;64042;50.916;6.988;2022-12-18T11:07:59;9.07;;;5.38;;
75303;SDS011;64042;50.916;6.988;2022-12-18T11:10:26;8.02;;;6.45;;
75303;SDS011;64042;50.916;6.988;2022-12-18T11:12:54;7.50;;;6.80;;
75303;SDS011;64042;50.916;6.988;2022-12-18T11:15:29;9.25;;;6.80;;
75303;SDS011;64042;50.916;6.988;2022-12-18T11:17:55;5.80;;;4.40;;
75303;SDS011;64042;50.916;6.988;2022-12-18T11:23:04;9.43;;;8.48;;
75303;SDS011;64042;50.916;6.988;2022-12-18T11:25:36;6.20;;;4.65;;
75303;SDS011;64042;50.916;6.988;2022-12-18T11:28:02;7.05;;;6.18;;
75303;SDS011;64042;50.916;6.988;2022-12-18T11:30:51;7.78;;;4.85;;
75303;SDS011;64042;50.916;6.988;2022-12-18T11:34:09;7.55;;;6.40;;
75303;SDS011;64042;50.916;6.988;2022-12-18T11:36:44;7.70;;;6.15;;
75303;SDS011;64042;50.916;6.988;2022-12-18T11:47:09;7.32;;;6.60;;
75303;SDS011;64042;50.916;6.988;2022-12-18T11:49:40;6.63;;;4.15;;
75303;SDS011;64042;50.916;6.988;2022-12-18T11:52:10;5.97;;;4.88;;
75303;SDS011;64042;50.916;6.988;2022-12-18T11:54:44;7.10;;;6.40;;
75303;SDS011;64042;50.916;6.988;2022-12-18T11:57:24;6.53;;;5.93;;
75303;SDS011;64042;50.916;6.988;2022-12-18T12:00:07;6.72;;;6.13;;
75303;SDS011;64042;50.916;6.988;2022-12-18T12:02:40;8.27;;;7.47;;
75303;SDS011;64042;50.916;6.988;2022-12-18T12:21:34;5.55;;;4.20;;
75303;SDS011;64042;50.916;6.988;2022-12-18T12:27:05;6.95;;;6.25;;
75303;SDS011;64042;50.916;6.988;2022-12-18T12:29:46;6.80;;;5.50;;
75303;SDS011;64042;50.916;6.988;2022-12-18T12:32:36;7.22;;;6.53;;
75303;SDS011;64042;50.916;6.988;2022-12-18T12:38:09;6.97;;;6.20;;
75303;SDS011;64042;50.916;6.988;2022-12-18T12:41:12;5.78;;;4.63;;
75303;SDS011;64042;50.916;6.988;2022-12-18T12:43:38;6.38;;;5.43;;
75303;SDS011;64042;50.916;6.988;2022-12-18T12:46:07;7.57;;;6.85;;
75303;SDS011;64042;50.916;6.988;2022-12-18T12:48:47;8.38;;;7.57;;
75303;SDS011;64042;50.916;6.988;2022-12-18T12:51:19;5.88;;;5.28;;
75303;SDS011;64042;50.916;6.988;2022-12-18T12:53:46;7.05;;;6.35;;
75303;SDS011;64042;50.916;6.988;2022-12-18T12:56:14;7.00;;;5.93;;
75303;SDS011;64042;50.916;6.988;2022-12-18T13:04:27;8.05;;;7.32;;
75303;SDS011;64042;50.916;6.988;2022-12-18T13:07:05;8.18;;;7.55;;
75303;SDS011;64042;50.916;6.988;2022-12-18T13:09:36;6.55;;;5.93;;
75303;SDS011;64042;50.916;6.988;2022-12-18T13:12:37;6.60;;;5.97;;
75303;SDS011;64042;50.916;6.988;2022-12-18T13:15:32;5.63;;;4.05;;
75303;SDS011;64042;50.916;6.988;2022-12-18T13:18:03;6.45;;;4.35;;
75303;SDS011;64042;50.916;6.988;2022-12-18T13:20:36;8.18;;;7.47;;
75303;SDS011;64042;50.916;6.988;2022-12-18T13:25:48;6.88;;;6.28;;
75303;SDS011;64042;50.916;6.988;2022-12-18T13:28:15;7.57;;;6.90;;
75303;SDS011;64042;50.916;6.988;2022-12-18T13:30:48;6.70;;;6.10;;
75303;SDS011;64042;50.916;6.988;2022-12-18T13:35:50;7.43;;;6.83;;
75303;SDS011;64042;50.916;6.988;2022-12-18T13:48:55;6.15;;;5.47;;
75303;SDS011;64042;50.916;6.988;2022-12-18T13:51:31;6.35;;;5.80;;
75303;SDS011;64042;50.916;6.988;2022-12-18T13:54:02;6.60;;;6.00;;
75303;SDS011;64042;50.916;6.988;2022-12-18T13:56:32;5.00;;;4.50;;
75303;SDS011;64042;50.916;6.988;2022-12-18T14:01:33;6.72;;;6.13;;
75303;SDS011;64042;50.916;6.988;2022-12-18T14:04:11;5.23;;;4.13;;
75303;SDS011;64042;50.916;6.988;2022-12-18T14:06:45;7.78;;;7.00;;
75303;SDS011;64042;50.916;6.988;2022-12-18T14:09:27;6.68;;;6.07;;
75303;SDS011;64042;50.916;6.988;2022-12-18T14:11:54;6.28;;;5.78;;
75303;SDS011;64042;50.916;6.988;2022-12-18T14:14:41;6.15;;;5.57;;
75303;SDS011;64042;50.916;6.988;2022-12-18T14:17:09;7.50;;;6.68;;
75303;SDS011;64042;50.916;6.988;2022-12-18T14:19:35;5.03;;;4.10;;
75303;SDS011;64042;50.916;6.988;2022-12-18T14:22:00;6.68;;;6.07;;
75303;SDS011;64042;50.916;6.988;2022-12-18T14:24:26;7.10;;;6.38;;
75303;SDS011;64042;50.916;6.988;2022-12-18T14:26:52;6.95;;;6.35;;
75303;SDS011;64042;50.916;6.988;2022-12-18T14:29:22;6.57;;;5.97;;
75303;SDS011;64042;50.916;6.988;2022-12-18T14:32:04;6.82;;;6.22;;
75303;SDS011;64042;50.916;6.988;2022-12-18T14:34:38;6.47;;;5.97;;
75303;SDS011;64042;50.916;6.988;2022-12-18T14:37:04;5.87;;;4.43;;
75303;SDS011;64042;50.916;6.988;2022-12-18T14:39:29;7.55;;;6.95;;
75303;SDS011;64042;50.916;6.988;2022-12-18T14:41:55;8.23;;;7.53;;
75303;SDS011;64042;50.916;6.988;2022-12-18T14:44:20;7.83;;;7.23;;
75303;SDS011;64042;50.916;6.988;2022-12-18T14:46:46;7.25;;;6.65;;
75303;SDS011;64042;50.916;6.988;2022-12-18T14:52:04;6.97;;;6.47;;
75303;SDS011;64042;50.916;6.988;2022-12-18T14:54:30;6.07;;;5.47;;
75303;SDS011;64042;50.916;6.988;2022-12-18T14:57:00;5.68;;;4.47;;
75303;SDS011;64042;50.916;6.988;2022-12-18T14:59:27;6.00;;;4.00;;
75303;SDS011;64042;50.916;6.988;2022-12-18T15:04:29;5.70;;;5.10;;
75303;SDS011;64042;50.916;6.988;2022-12-18T15:10:00;7.93;;;7.22;;
75303;SDS011;64042;50.916;6.988;2022-12-18T15:12:31;6.68;;;6.07;;
75303;SDS011;64042;50.916;6.988;2022-12-18T15:14:59;7.13;;;6.53;;
75303;SDS011;64042;50.916;6.988;2022-12-18T15:17:24;6.93;;;6.43;;
75303;SDS011;64042;50.916;6.988;2022-12-18T15:19:51;7.45;;;6.85;;
75303;SDS011;64042;50.916;6.988;2022-12-18T15:22:27;6.40;;;5.80;;
75303;SDS011;64042;50.916;6.988;2022-12-18T15:24:54;6.85;;;6.25;;
75303;SDS011;64042;50.916;6.988;2022-12-18T15:27:22;4.88;;;4.00;;
75303;SDS011;64042;50.916;6.988;2022-12-18T15:32:35;7.07;;;6.30;;
75303;SDS011;64042;50.916;6.988;2022-12-18T15:37:36;6.20;;;4.88;;
75303;SDS011;64042;50.916;6.988;2022-12-18T15:40:01;7.00;;;6.40;;
75303;SDS011;64042;50.916;6.988;2022-12-18T15:42:27;5.50;;;4.85;;
75303;SDS011;64042;50.916;6.988;2022-12-18T15:45:11;5.70;;;5.20;;
75303;SDS011;64042;50.916;6.988;2022-12-18T15:47:37;6.53;;;5.93;;
75303;SDS011;64042;50.916;6.988;2022-12-18T15:50:03;7.97;;;7.17;;
75303;SDS011;64042;50.916;6.988;2022-12-18T15:52:28;7.38;;;6.78;;
75303;SDS011;64042;50.916;6.988;2022-12-18T15:54:54;6.50;;;5.68;;
75303;SDS011;64042;50.916;6.988;2022-12-18T15:57:37;7.50;;;4.32;;
75303;SDS011;64042;50.916;6.988;2022-12-18T16:00:03;7.33;;;6.53;;
75303;SDS011;64042;50.916;6.988;2022-12-18T16:02:29;5.70;;;4.60;;
75303;SDS011;64042;50.916;6.988;2022-12-18T16:04:54;6.68;;;6.03;;
75303;SDS011;64042;50.916;6.988;2022-12-18T16:07:20;6.93;;;6.32;;
75303;SDS011;64042;50.916;6.988;2022-12-18T16:09:45;7.07;;;6.38;;
75303;SDS011;64042;50.916;6.988;2022-12-18T16:12:14;6.82;;;5.97;;
75303;SDS011;64042;50.916;6.988;2022-12-18T16:14:41;7.47;;;6.30;;
75303;SDS011;64042;50.916;6.988;2022-12-18T16:17:08;5.47;;;4.40;;
75303;SDS011;64042;50.916;6.988;2022-12-18T16:19:34;8.40;;;7.70;;
75303;SDS011;64042;50.916;6.988;2022-12-18T16:22:00;5.20;;;4.50;;
75303;SDS011;64042;50.916;6.988;2022-12-18T16:24:26;7.13;;;6.43;;
75303;SDS011;64042;50.916;6.988;2022-12-18T16:26:53;5.68;;;4.70;;
75303;SDS011;64042;50.916;6.988;2022-12-18T16:29:19;6.32;;;5.00;;
75303;SDS011;64042;50.916;6.988;2022-12-18T16:31:51;6.15;;;5.60;;
75303;SDS011;64042;50.916;6.988;2022-12-18T16:34:19;7.25;;;6.65;;
75303;SDS011;64042;50.916;6.988;2022-12-18T16:36:49;7.28;;;6.68;;
75303;SDS011;64042;50.916;6.988;2022-12-18T16:39:14;5.07;;;4.43;;
75303;SDS011;64042;50.916;6.988;2022-12-18T16:41:40;6.25;;;5.65;;
75303;SDS011;64042;50.916;6.988;2022-12-18T16:44:05;7.00;;;6.32;;
75303;SDS011;64042;50.916;6.988;2022-12-18T16:46:31;7.45;;;6.85;;
75303;SDS011;64042;50.916;6.988;2022-12-18T16:48:57;5.15;;;4.55;;
75303;SDS011;64042;50.916;6.988;2022-12-18T16:51:23;6.97;;;6.38;;